createdAt,value
2023-03-31T00:00:58.122Z,10.70
2023-03-31T00:03:25.605Z,10.70
2023-03-31T00:06:01.906Z,10.60
2023-03-31T00:08:35.968Z,10.50
2023-03-31T00:11:07.746Z,10.50
2023-03-31T00:13:36.741Z,10.50
2023-03-31T00:16:09.213Z,10.50
2023-03-31T00:18:37.630Z,10.40
2023-03-31T00:21:14.963Z,10.40
2023-03-31T00:23:42.470Z,10.40
2023-03-31T00:26:09.657Z,10.40
2023-03-31T00:28:36.726Z,10.30
2023-03-31T00:31:04.388Z,10.30
2023-03-31T00:33:31.617Z,10.20
2023-03-31T00:36:02.371Z,10.20
2023-03-31T00:38:30.342Z,10.30
2023-03-31T00:40:57.750Z,10.20
2023-03-31T00:43:38.694Z,10.20
2023-03-31T00:46:27.697Z,10.20
2023-03-31T00:48:58.227Z,10.20
2023-03-31T00:51:32.147Z,10.20
2023-03-31T00:54:05.097Z,10.20
2023-03-31T00:56:45.034Z,10.20
2023-03-31T00:59:14.040Z,10.20
2023-03-31T01:01:46.219Z,10.20
2023-03-31T01:04:16.522Z,10.20
2023-03-31T01:07:00.978Z,10.20
2023-03-31T01:09:35.073Z,10.20
2023-03-31T01:12:06.417Z,10.30
2023-03-31T01:14:34.184Z,10.30
2023-03-31T01:17:02.776Z,10.30
2023-03-31T01:20:13.936Z,10.30
2023-03-31T01:23:31.032Z,10.40
2023-03-31T01:26:38.786Z,10.40
2023-03-31T01:29:39.426Z,10.40
2023-03-31T01:32:36.965Z,10.40
2023-03-31T01:35:48.826Z,10.50
2023-03-31T01:38:53.929Z,10.50
2023-03-31T01:42:12.614Z,10.50
2023-03-31T01:45:18.323Z,10.50
2023-03-31T01:47:58.240Z,10.50
2023-03-31T01:50:38.350Z,10.50
2023-03-31T01:53:40.463Z,10.50
2023-03-31T01:56:13.495Z,10.50
2023-03-31T01:58:59.261Z,10.50
2023-03-31T02:01:57.430Z,10.50
2023-03-31T02:04:37.634Z,10.50
2023-03-31T02:07:31.992Z,10.50
2023-03-31T02:10:03.982Z,10.40
2023-03-31T02:12:34.097Z,10.40
2023-03-31T02:15:05.213Z,10.40
2023-03-31T02:17:33.074Z,10.40
2023-03-31T02:20:06.423Z,10.40
2023-03-31T02:22:37.937Z,10.40
2023-03-31T02:25:10.073Z,10.40
2023-03-31T02:27:43.147Z,10.40
2023-03-31T02:30:12.190Z,10.40
2023-03-31T02:32:41.424Z,10.40
2023-03-31T02:35:17.297Z,10.40
2023-03-31T02:37:45.619Z,10.40
2023-03-31T02:40:22.961Z,10.40
2023-03-31T02:42:50.440Z,10.40
2023-03-31T02:45:46.889Z,10.40
2023-03-31T02:48:27.691Z,10.40
2023-03-31T02:51:16.516Z,10.40
2023-03-31T02:54:07.604Z,10.40
2023-03-31T02:56:55.900Z,10.30
2023-03-31T03:00:10.402Z,10.30
2023-03-31T03:03:09.740Z,10.30
2023-03-31T03:06:06.478Z,10.30
2023-03-31T03:08:42.476Z,10.30
2023-03-31T03:11:46.730Z,10.30
2023-03-31T03:14:28.519Z,10.30
2023-03-31T03:17:17.889Z,10.30
2023-03-31T03:19:50.752Z,10.30
2023-03-31T03:22:17.976Z,10.30
2023-03-31T03:24:45.179Z,10.30
2023-03-31T03:27:12.220Z,10.30
2023-03-31T03:29:39.771Z,10.30
2023-03-31T03:32:07.047Z,10.30
2023-03-31T03:34:34.237Z,10.30
2023-03-31T03:37:01.328Z,10.30
2023-03-31T03:39:28.481Z,10.20
2023-03-31T03:41:55.681Z,10.30
2023-03-31T03:44:22.716Z,10.20
2023-03-31T03:46:49.895Z,10.30
2023-03-31T03:49:17.250Z,10.30
2023-03-31T03:51:44.378Z,10.20
2023-03-31T03:54:12.634Z,10.20
2023-03-31T03:56:39.700Z,10.20
2023-03-31T03:59:07.103Z,10.10
2023-03-31T04:01:34.142Z,10.10
2023-03-31T04:04:01.203Z,10.10
2023-03-31T04:06:28.309Z,10.10
2023-03-31T04:08:55.355Z,10.00
2023-03-31T04:11:23.198Z,10.10
2023-03-31T04:13:50.238Z,10.10
2023-03-31T04:16:17.331Z,10.00
2023-03-31T04:18:44.596Z,10.10
2023-03-31T04:21:15.861Z,10.10
2023-03-31T04:23:46.898Z,10.00
2023-03-31T04:26:16.830Z,10.00
2023-03-31T04:28:47.017Z,10.00
2023-03-31T04:31:16.690Z,10.00
2023-03-31T04:33:46.362Z,10.00
2023-03-31T04:36:19.663Z,10.00
2023-03-31T04:38:51.006Z,10.00
2023-03-31T04:41:18.897Z,10.00
2023-03-31T04:43:46.200Z,10.00
2023-03-31T04:46:13.824Z,10.00
2023-03-31T04:48:41.277Z,9.90
2023-03-31T04:51:09.491Z,9.90
2023-03-31T04:53:36.759Z,10.00
2023-03-31T04:56:04.496Z,9.90
2023-03-31T04:58:31.691Z,9.90
2023-03-31T05:00:58.911Z,10.00
2023-03-31T05:03:26.553Z,10.00
2023-03-31T05:05:53.769Z,10.00
2023-03-31T05:08:21.279Z,10.00
2023-03-31T05:10:48.364Z,10.00
2023-03-31T05:13:16.010Z,10.00
2023-03-31T05:15:45.096Z,10.00
2023-03-31T05:18:12.290Z,10.00
2023-03-31T05:20:39.460Z,10.00
2023-03-31T05:23:07.022Z,9.90
2023-03-31T05:25:34.573Z,9.90
2023-03-31T05:28:02.561Z,9.90
2023-03-31T05:30:29.990Z,9.90
2023-03-31T05:32:57.463Z,9.90
2023-03-31T05:35:24.947Z,9.90
2023-03-31T05:37:52.038Z,9.90
2023-03-31T05:40:19.361Z,9.90
2023-03-31T05:42:46.409Z,9.90
2023-03-31T05:45:13.741Z,9.90
2023-03-31T05:47:40.843Z,9.90
2023-03-31T05:50:09.398Z,9.90
2023-03-31T05:52:36.931Z,9.90
2023-03-31T05:55:07.985Z,9.90
2023-03-31T05:57:34.988Z,9.90
2023-03-31T06:00:03.753Z,9.90
2023-03-31T06:02:31.405Z,9.90
2023-03-31T06:04:58.893Z,9.90
2023-03-31T06:07:26.184Z,9.90
2023-03-31T06:09:53.461Z,10.00
2023-03-31T06:12:20.607Z,9.90
2023-03-31T06:14:47.621Z,9.90
2023-03-31T06:17:14.594Z,10.00
2023-03-31T06:19:41.770Z,10.00
2023-03-31T06:22:08.809Z,10.00
2023-03-31T06:24:35.838Z,10.00
2023-03-31T06:27:04.166Z,10.00
2023-03-31T06:29:31.285Z,10.00
2023-03-31T06:31:58.943Z,10.00
2023-03-31T06:34:26.293Z,10.00
2023-03-31T06:36:53.551Z,10.10
2023-03-31T06:39:20.775Z,10.20
2023-03-31T06:41:47.950Z,10.20
2023-03-31T06:44:16.747Z,10.20
2023-03-31T06:46:44.237Z,10.20
2023-03-31T06:49:11.538Z,10.30
2023-03-31T06:51:38.660Z,10.30
2023-03-31T06:54:06.508Z,10.30
2023-03-31T06:56:33.836Z,10.30
2023-03-31T06:59:01.065Z,10.30
2023-03-31T07:01:28.233Z,10.30
2023-03-31T07:03:55.565Z,10.30
2023-03-31T07:06:22.576Z,10.30
2023-03-31T07:08:49.659Z,10.30
2023-03-31T07:11:16.752Z,10.30
2023-03-31T07:13:43.838Z,10.30
2023-03-31T07:16:13.834Z,10.30
2023-03-31T07:18:42.140Z,10.30
2023-03-31T07:21:10.245Z,10.30
2023-03-31T07:23:38.011Z,10.30
2023-03-31T07:26:06.472Z,10.40
2023-03-31T07:28:33.886Z,10.40
2023-03-31T07:31:01.304Z,10.50
2023-03-31T07:33:28.611Z,10.50
2023-03-31T07:36:08.232Z,10.60
2023-03-31T07:38:45.784Z,10.70
2023-03-31T07:41:16.549Z,10.80
2023-03-31T07:43:44.244Z,10.90
2023-03-31T07:46:27.250Z,10.90
2023-03-31T07:48:56.820Z,11.00
2023-03-31T07:51:27.046Z,11.10
2023-03-31T07:53:54.257Z,11.10
2023-03-31T07:56:24.491Z,11.20
2023-03-31T07:58:55.314Z,11.30
2023-03-31T08:01:26.326Z,11.30
2023-03-31T08:03:55.962Z,11.30
2023-03-31T08:06:25.743Z,11.40
2023-03-31T08:08:52.973Z,11.40
2023-03-31T08:11:21.650Z,11.50
2023-03-31T08:13:49.463Z,11.60
2023-03-31T08:16:17.299Z,11.80
2023-03-31T08:18:44.541Z,11.90
2023-03-31T08:21:11.771Z,12.10
2023-03-31T08:23:38.832Z,12.20
2023-03-31T08:26:18.205Z,12.30
2023-03-31T08:28:46.476Z,12.30
2023-03-31T08:31:16.651Z,12.20
2023-03-31T08:33:44.411Z,12.30
2023-03-31T08:36:12.331Z,12.40
2023-03-31T08:38:42.242Z,12.40
2023-03-31T08:41:44.268Z,12.30
2023-03-31T08:44:22.767Z,12.30
2023-03-31T08:46:53.975Z,12.20
2023-03-31T08:49:22.527Z,12.20
2023-03-31T08:51:56.010Z,12.20
2023-03-31T08:54:46.703Z,12.20
2023-03-31T08:57:45.454Z,12.20
2023-03-31T09:00:19.933Z,12.30
2023-03-31T09:03:07.427Z,12.40
2023-03-31T09:05:57.321Z,12.40
2023-03-31T09:08:38.671Z,12.40
2023-03-31T09:11:37.217Z,12.50
2023-03-31T09:14:42.839Z,12.60
2023-03-31T09:17:39.124Z,12.70
2023-03-31T09:20:13.520Z,12.80
2023-03-31T09:22:51.257Z,12.70
2023-03-31T09:25:27.899Z,12.70
2023-03-31T09:27:59.840Z,12.80
2023-03-31T09:30:34.069Z,12.80
2023-03-31T09:33:16.303Z,12.80
2023-03-31T09:35:46.299Z,12.90
2023-03-31T09:38:15.935Z,12.80
2023-03-31T09:40:48.716Z,12.80
2023-03-31T09:43:26.541Z,12.90
2023-03-31T09:46:08.542Z,12.80
2023-03-31T09:48:40.180Z,13.00
2023-03-31T09:51:14.523Z,13.10
2023-03-31T09:53:52.619Z,13.20
2023-03-31T09:56:42.179Z,13.20
2023-03-31T09:59:34.900Z,13.30
2023-03-31T10:02:34.559Z,13.30
2023-03-31T10:05:03.538Z,13.50
2023-03-31T10:07:31.468Z,13.50
2023-03-31T10:09:58.811Z,13.50
2023-03-31T10:12:32.044Z,13.30
2023-03-31T10:15:26.430Z,13.30
2023-03-31T10:17:55.423Z,13.30
2023-03-31T10:20:43.123Z,13.40
2023-03-31T10:23:29.837Z,13.40
2023-03-31T10:25:57.432Z,13.30
2023-03-31T10:28:25.529Z,13.30
2023-03-31T10:30:57.769Z,13.30
2023-03-31T10:33:28.051Z,13.40
2023-03-31T10:36:01.129Z,13.30
2023-03-31T10:38:37.448Z,13.40
2023-03-31T10:41:04.975Z,13.30
2023-03-31T10:43:48.000Z,13.30
2023-03-31T10:46:15.050Z,13.30
2023-03-31T10:48:44.457Z,13.40
2023-03-31T10:51:20.068Z,13.50
2023-03-31T10:53:49.861Z,13.50
2023-03-31T10:56:26.249Z,13.60
2023-03-31T10:59:15.231Z,13.40
2023-03-31T11:02:00.953Z,13.30
2023-03-31T11:04:54.134Z,13.30
2023-03-31T11:07:27.651Z,13.30
2023-03-31T11:10:21.759Z,13.20
2023-03-31T11:13:05.905Z,13.20
2023-03-31T11:15:38.832Z,13.20
2023-03-31T11:18:43.261Z,13.20
2023-03-31T11:21:34.894Z,13.30
2023-03-31T11:24:48.674Z,13.40
2023-03-31T11:27:36.552Z,13.30
2023-03-31T11:30:24.852Z,13.30
2023-03-31T11:33:23.560Z,13.20
2023-03-31T11:36:12.341Z,13.20
2023-03-31T11:39:11.279Z,13.30
2023-03-31T11:41:49.699Z,13.30
2023-03-31T11:44:20.427Z,13.40
2023-03-31T11:47:00.103Z,13.40
2023-03-31T11:49:55.425Z,13.40
2023-03-31T11:52:37.696Z,13.40
2023-03-31T11:55:22.008Z,13.40
2023-03-31T11:58:04.769Z,13.50
2023-03-31T12:00:52.816Z,13.80
2023-03-31T12:04:17.620Z,14.10
2023-03-31T12:06:47.223Z,14.30
2023-03-31T12:09:48.804Z,14.40
2023-03-31T12:12:32.276Z,14.10
2023-03-31T12:15:14.678Z,14.20
2023-03-31T12:17:49.584Z,14.10
2023-03-31T12:20:41.680Z,14.10
2023-03-31T12:23:19.940Z,14.30
2023-03-31T12:26:11.497Z,14.40
2023-03-31T12:28:40.691Z,14.20
2023-03-31T12:31:13.516Z,14.10
2023-03-31T12:34:00.851Z,14.30
2023-03-31T12:37:01.389Z,14.50
2023-03-31T12:39:54.833Z,14.50
2023-03-31T12:43:03.424Z,14.50
2023-03-31T12:45:39.437Z,14.60
2023-03-31T12:48:24.469Z,14.80
2023-03-31T12:50:54.097Z,14.80
2023-03-31T12:54:09.814Z,14.60
2023-03-31T12:57:04.559Z,14.50
2023-03-31T12:59:41.743Z,14.40
2023-03-31T13:02:11.638Z,14.40
2023-03-31T13:04:39.448Z,14.30
2023-03-31T13:07:28.330Z,14.10
2023-03-31T13:10:21.538Z,14.10
2023-03-31T13:13:06.701Z,14.10
2023-03-31T13:15:34.108Z,13.90
2023-03-31T13:18:07.395Z,13.80
2023-03-31T13:20:40.965Z,13.80
2023-03-31T13:23:22.716Z,13.60
2023-03-31T13:25:52.188Z,13.60
2023-03-31T13:28:21.949Z,13.30
2023-03-31T13:30:54.065Z,13.30
2023-03-31T13:33:57.773Z,13.10
2023-03-31T13:36:58.675Z,12.80
2023-03-31T13:40:32.961Z,12.70
2023-03-31T13:44:00.139Z,12.70
2023-03-31T13:46:51.189Z,12.60
2023-03-31T13:49:47.112Z,12.50
2023-03-31T13:52:20.969Z,12.50
2023-03-31T13:55:24.141Z,12.60
2023-03-31T13:58:35.035Z,12.60
2023-03-31T14:01:34.257Z,12.80
2023-03-31T14:04:48.883Z,12.80
2023-03-31T14:07:23.155Z,12.90
2023-03-31T14:09:54.143Z,12.70
2023-03-31T14:12:25.780Z,12.70
2023-03-31T14:14:56.284Z,12.70
2023-03-31T14:17:38.233Z,12.50
2023-03-31T14:20:55.189Z,12.40
2023-03-31T14:23:38.684Z,12.40
2023-03-31T14:26:36.926Z,12.40
2023-03-31T14:29:36.296Z,12.30
2023-03-31T14:32:38.705Z,12.40
2023-03-31T14:35:38.669Z,12.40
2023-03-31T14:38:20.775Z,12.40
2023-03-31T14:40:56.330Z,12.30
2023-03-31T14:43:37.021Z,12.10
2023-03-31T14:46:09.757Z,12.10
2023-03-31T14:48:47.992Z,12.30
2023-03-31T14:51:19.082Z,12.40
2023-03-31T14:53:46.309Z,12.40
2023-03-31T14:56:20.816Z,12.50
2023-03-31T14:58:54.418Z,12.70
2023-03-31T15:01:35.850Z,12.70
2023-03-31T15:04:13.805Z,12.60
2023-03-31T15:06:44.672Z,12.50
2023-03-31T15:09:23.746Z,12.50
2023-03-31T15:12:00.518Z,12.50
2023-03-31T15:14:54.972Z,12.60
2023-03-31T15:17:28.177Z,12.60
2023-03-31T15:19:58.794Z,12.60
2023-03-31T15:22:29.059Z,12.50
2023-03-31T15:24:57.309Z,12.50
2023-03-31T15:27:38.080Z,12.40
2023-03-31T15:30:18.974Z,12.40
2023-03-31T15:32:46.954Z,12.30
2023-03-31T15:35:33.271Z,12.30
2023-03-31T15:38:04.177Z,12.10
2023-03-31T15:40:41.080Z,12.10
2023-03-31T15:43:28.757Z,12.00
2023-03-31T15:46:00.041Z,12.00
2023-03-31T15:48:48.878Z,12.00
2023-03-31T15:51:30.402Z,12.00
2023-03-31T15:53:57.730Z,11.90
2023-03-31T15:56:44.715Z,11.90
2023-03-31T15:59:37.934Z,11.90
2023-03-31T16:02:19.182Z,11.90
2023-03-31T16:04:58.827Z,11.80
2023-03-31T16:07:33.730Z,11.80
2023-03-31T16:10:22.201Z,11.70
2023-03-31T16:13:01.991Z,11.70
2023-03-31T16:15:41.213Z,11.80
2023-03-31T16:18:26.159Z,11.80
2023-03-31T16:21:01.931Z,11.80
2023-03-31T16:23:34.123Z,11.80
2023-03-31T16:26:02.118Z,11.80
2023-03-31T16:28:37.487Z,11.70
2023-03-31T16:31:26.241Z,11.70
2023-03-31T16:33:57.197Z,11.70
2023-03-31T16:36:24.387Z,11.80
2023-03-31T16:38:55.159Z,11.80
2023-03-31T16:41:23.524Z,11.80
2023-03-31T16:43:54.274Z,11.80
2023-03-31T16:46:23.604Z,11.90
2023-03-31T16:48:51.854Z,11.90
2023-03-31T16:51:19.359Z,11.80
2023-03-31T16:53:47.817Z,11.80
2023-03-31T16:56:15.769Z,11.70
2023-03-31T16:58:43.964Z,11.60
2023-03-31T17:01:11.894Z,11.40
2023-03-31T17:03:41.713Z,11.30
2023-03-31T17:06:13.222Z,11.20
2023-03-31T17:08:40.950Z,11.10
2023-03-31T17:11:12.070Z,11.10
2023-03-31T17:13:41.707Z,11.00
2023-03-31T17:16:19.097Z,11.00
2023-03-31T17:18:51.424Z,10.90
2023-03-31T17:21:19.414Z,11.00
2023-03-31T17:23:47.863Z,11.00
2023-03-31T17:26:16.056Z,10.90
2023-03-31T17:28:43.667Z,11.00
2023-03-31T17:31:20.570Z,10.90
2023-03-31T17:33:48.327Z,10.90
2023-03-31T17:36:16.583Z,10.90
2023-03-31T17:38:43.916Z,10.90
2023-03-31T17:41:13.902Z,10.80
2023-03-31T17:43:45.848Z,10.80
2023-03-31T17:46:13.793Z,10.80
2023-03-31T17:48:43.190Z,10.80
2023-03-31T17:51:16.549Z,10.80
2023-03-31T17:53:46.203Z,10.90
2023-03-31T17:56:15.626Z,10.90
2023-03-31T17:58:42.962Z,10.90
2023-03-31T18:01:11.837Z,10.90
2023-03-31T18:03:39.235Z,10.80
2023-03-31T18:06:13.026Z,10.80
2023-03-31T18:08:42.045Z,10.80
2023-03-31T18:11:10.774Z,10.80
2023-03-31T18:13:38.844Z,10.70
2023-03-31T18:16:13.113Z,10.70
2023-03-31T18:18:41.594Z,10.60
2023-03-31T18:21:13.182Z,10.60
2023-03-31T18:23:41.803Z,10.60
2023-03-31T18:26:13.403Z,10.50
2023-03-31T18:28:41.245Z,10.50
2023-03-31T18:31:09.863Z,10.40
2023-03-31T18:33:37.389Z,10.40
2023-03-31T18:36:06.177Z,10.40
2023-03-31T18:38:34.568Z,10.30
2023-03-31T18:41:01.831Z,10.40
2023-03-31T18:43:31.400Z,10.30
2023-03-31T18:46:01.332Z,10.30
2023-03-31T18:48:29.319Z,10.30
2023-03-31T18:50:56.649Z,10.30
2023-03-31T18:53:25.345Z,10.30
2023-03-31T18:55:56.620Z,10.30
2023-03-31T18:58:25.689Z,10.30
2023-03-31T19:00:52.866Z,10.20
2023-03-31T19:03:20.423Z,10.20
2023-03-31T19:05:48.039Z,10.20
2023-03-31T19:08:15.404Z,10.20
2023-03-31T19:10:42.676Z,10.20
2023-03-31T19:13:15.921Z,10.20
2023-03-31T19:15:43.322Z,10.10
2023-03-31T19:18:15.055Z,10.10
2023-03-31T19:20:42.212Z,10.10
2023-03-31T19:23:09.599Z,10.10
2023-03-31T19:25:37.040Z,10.10
2023-03-31T19:28:04.144Z,10.10
2023-03-31T19:30:31.310Z,10.10
2023-03-31T19:32:58.480Z,10.00
2023-03-31T19:35:27.243Z,10.10
2023-03-31T19:37:54.855Z,10.10
2023-03-31T19:40:22.318Z,10.10
2023-03-31T19:42:49.369Z,10.10
2023-03-31T19:45:16.640Z,10.10
2023-03-31T19:47:43.910Z,10.00
2023-03-31T19:50:11.575Z,10.10
2023-03-31T19:52:38.839Z,10.00
2023-03-31T19:55:06.566Z,10.10
2023-03-31T19:57:33.750Z,10.10
2023-03-31T20:00:02.634Z,10.10
2023-03-31T20:02:31.761Z,10.10
2023-03-31T20:04:59.103Z,10.10
2023-03-31T20:07:26.529Z,10.10
2023-03-31T20:09:53.677Z,10.10
2023-03-31T20:12:20.832Z,10.00
2023-03-31T20:14:47.973Z,10.10
2023-03-31T20:17:15.642Z,10.10
2023-03-31T20:19:43.348Z,10.10
2023-03-31T20:22:10.444Z,10.00
2023-03-31T20:24:38.545Z,10.00
2023-03-31T20:27:05.712Z,10.10
2023-03-31T20:29:32.925Z,10.10
2023-03-31T20:32:00.280Z,10.00
2023-03-31T20:34:27.696Z,10.00
2023-03-31T20:36:55.004Z,10.00
2023-03-31T20:39:22.098Z,10.00
2023-03-31T20:41:50.489Z,10.00
2023-03-31T20:44:17.553Z,10.10
2023-03-31T20:46:45.095Z,10.00
2023-03-31T20:49:12.626Z,10.00
2023-03-31T20:51:40.059Z,9.90
2023-03-31T20:54:08.381Z,10.00
2023-03-31T20:56:39.597Z,10.00
2023-03-31T20:59:11.271Z,10.00
2023-03-31T21:01:39.415Z,9.90
2023-03-31T21:04:08.989Z,10.00
2023-03-31T21:06:46.035Z,10.00
2023-03-31T21:09:15.225Z,9.90
2023-03-31T21:11:42.554Z,9.90
2023-03-31T21:14:17.403Z,9.90
2023-03-31T21:16:44.833Z,9.90
2023-03-31T21:19:12.360Z,9.90
2023-03-31T21:21:41.680Z,10.00
2023-03-31T21:24:11.640Z,10.00
2023-03-31T21:26:39.623Z,9.90
2023-03-31T21:29:07.038Z,9.90
2023-03-31T21:31:34.248Z,9.90
2023-03-31T21:34:02.798Z,9.90
2023-03-31T21:36:30.105Z,9.90
2023-03-31T21:38:57.922Z,9.90
2023-03-31T21:41:30.660Z,9.90
2023-03-31T21:44:01.706Z,9.80
2023-03-31T21:46:33.115Z,9.90
2023-03-31T21:49:01.200Z,9.80
2023-03-31T21:51:28.900Z,9.90
2023-03-31T21:53:56.638Z,9.80
2023-03-31T21:56:25.802Z,9.90
2023-03-31T21:58:53.311Z,9.80
2023-03-31T22:01:21.974Z,9.80
2023-03-31T22:03:50.958Z,9.90
2023-03-31T22:06:18.772Z,9.90
2023-03-31T22:08:46.399Z,9.90
2023-03-31T22:11:14.710Z,9.90
2023-03-31T22:13:42.585Z,9.90
2023-03-31T22:16:20.759Z,9.90
2023-03-31T22:18:50.194Z,9.90
2023-03-31T22:21:26.849Z,9.90
2023-03-31T22:23:57.981Z,9.90
2023-03-31T22:26:27.369Z,9.90
2023-03-31T22:28:55.463Z,9.90
2023-03-31T22:31:23.076Z,9.90
2023-03-31T22:33:50.487Z,9.90
2023-03-31T22:36:17.648Z,9.90
2023-03-31T22:38:45.172Z,9.90
2023-03-31T22:41:12.308Z,9.90
2023-03-31T22:43:39.832Z,9.90
2023-03-31T22:46:08.029Z,9.90
2023-03-31T22:48:35.415Z,9.90
2023-03-31T22:51:05.887Z,9.90
2023-03-31T22:53:33.582Z,9.90
2023-03-31T22:56:11.937Z,9.90
2023-03-31T22:58:39.446Z,9.90
2023-03-31T23:01:09.982Z,9.90
2023-03-31T23:03:37.535Z,9.90
2023-03-31T23:06:06.267Z,9.90
2023-03-31T23:08:35.858Z,9.80
2023-03-31T23:11:09.152Z,9.90
2023-03-31T23:13:36.540Z,9.90
2023-03-31T23:16:24.776Z,9.90
2023-03-31T23:18:53.968Z,9.90
2023-03-31T23:21:25.817Z,9.80
2023-03-31T23:23:56.587Z,9.80
2023-03-31T23:26:26.323Z,9.80
2023-03-31T23:28:54.144Z,9.80
2023-03-31T23:31:25.799Z,9.80
2023-03-31T23:33:53.382Z,9.80
2023-03-31T23:36:21.552Z,9.80
2023-03-31T23:38:50.660Z,9.80
2023-03-31T23:41:19.694Z,9.80
2023-03-31T23:43:47.168Z,9.80
2023-03-31T23:46:14.428Z,9.80
2023-03-31T23:48:41.581Z,9.70
2023-03-31T23:51:09.945Z,9.80
2023-03-31T23:53:37.705Z,9.80
2023-03-31T23:56:12.671Z,9.80
2023-03-31T23:58:42.880Z,9.70
